This is the latest recevied weather packets stored in our database for station/object OM8AKX-12. If no packets are shown the sender has not sent any weather packets the latest 10 day(s).
| Time | Temp. | Humidity | Pressure | Rain* | Wind** | Luminosity | Snow |
|---|---|---|---|---|---|---|---|
| 1787637063 | 17.78° C | 56% | 1013.5 hPa | - | - | - | - |
| 1787636163 | 17.22° C | 59% | 1013.5 hPa | - | - | - | - |
| 1787635263 | 16.67° C | 62% | 1013.4 hPa | - | - | - | - |
| 1787634363 | 15.56° C | 65% | 1013.6 hPa | - | - | - | - |
| 1787632562 | 13.33° C | 72% | 1013.8 hPa | - | - | - | - |
| 1787631662 | 13.33° C | 72% | 1013.7 hPa | - | - | - | - |
| 1787630762 | 13.33° C | 72% | 1013.6 hPa | - | - | - | - |
| 1787629862 | 13.33° C | 71% | 1013.8 hPa | - | - | - | - |
| 1787628962 | 12.78° C | 72% | 1013.8 hPa | - | - | - | - |
| 1787628062 | 13.33° C | 71% | 1013.8 hPa | - | - | - | - |
| 1787627162 | 13.33° C | 71% | 1013.8 hPa | - | - | - | - |
| 1787626262 | 13.33° C | 70% | 1013.9 hPa | - | - | - | - |
| 1787625362 | 13.33° C | 69% | 1013.8 hPa | - | - | - | - |
| 1787624462 | 13.33° C | 68% | 1013.9 hPa | - | - | - | - |
| 1787623562 | 13.33° C | 68% | 1014 hPa | - | - | - | - |
| 1787622662 | 13.89° C | 66% | 1013.9 hPa | - | - | - | - |
| 1787621762 | 14.44° C | 63% | 1013.9 hPa | - | - | - | - |
| 1787620862 | 14.44° C | 62% | 1014 hPa | - | - | - | - |
| 1787619962 | 15° C | 61% | 1014.2 hPa | - | - | - | - |
| 1787619063 | 15° C | 61% | 1014.4 hPa | - | - | - | - |
| 1787618162 | 15.56° C | 59% | 1014.7 hPa | - | - | - | - |
| 1787617261 | 16.11° C | 57% | 1015 hPa | - | - | - | - |
| 1787616361 | 16.67° C | 55% | 1015.1 hPa | - | - | - | - |
| 1787615461 | 17.22° C | 54% | 1015.2 hPa | - | - | - | - |
| 1787614568 | 17.22° C | - | - | - | - | - | - |
* Rain since midnight (hover to see other rain measurements)
** Current wind speed in m/s (hover to see current wind gust speed)